createdAt,value
2023-05-15T00:00:28.597Z,19.50
2023-05-15T00:02:57.362Z,19.50
2023-05-15T00:05:24.541Z,19.50
2023-05-15T00:07:51.500Z,19.50
2023-05-15T00:10:18.376Z,19.50
2023-05-15T00:12:45.264Z,19.50
2023-05-15T00:15:12.042Z,19.40
2023-05-15T00:17:38.864Z,19.40
2023-05-15T00:20:07.596Z,19.40
2023-05-15T00:22:34.644Z,19.40
2023-05-15T00:25:01.441Z,19.40
2023-05-15T00:27:28.223Z,19.40
2023-05-15T00:29:55.040Z,19.40
2023-05-15T00:32:21.901Z,19.40
2023-05-15T00:34:48.673Z,19.40
2023-05-15T00:37:15.478Z,19.40
2023-05-15T00:39:42.307Z,19.40
2023-05-15T00:42:09.922Z,19.40
2023-05-15T00:44:38.365Z,19.30
2023-05-15T00:47:07.370Z,19.30
2023-05-15T00:49:35.947Z,19.40
2023-05-15T00:52:03.849Z,19.40
2023-05-15T00:54:30.800Z,19.40
2023-05-15T00:56:58.287Z,19.40
2023-05-15T00:59:30.165Z,19.40
2023-05-15T01:01:56.939Z,19.30
2023-05-15T01:04:23.907Z,19.40
2023-05-15T01:06:53.576Z,19.40
2023-05-15T01:09:23.658Z,19.40
2023-05-15T01:11:53.388Z,19.40
2023-05-15T01:14:20.466Z,19.40
2023-05-15T01:16:47.307Z,19.40
2023-05-15T01:19:14.543Z,19.40
2023-05-15T01:22:24.946Z,19.40
2023-05-15T01:25:19.942Z,19.40
2023-05-15T01:27:52.732Z,19.40
2023-05-15T01:30:28.759Z,19.40
2023-05-15T01:33:17.223Z,19.30
2023-05-15T01:35:53.302Z,19.30
2023-05-15T01:38:38.948Z,19.30
2023-05-15T01:41:22.388Z,19.30
2023-05-15T01:43:56.392Z,19.30
2023-05-15T01:46:24.693Z,19.30
2023-05-15T01:48:53.499Z,19.30
2023-05-15T01:51:22.396Z,19.30
2023-05-15T01:53:50.038Z,19.30
2023-05-15T01:56:20.029Z,19.30
2023-05-15T01:58:47.790Z,19.30
2023-05-15T02:01:15.975Z,19.30
2023-05-15T02:03:43.859Z,19.30
2023-05-15T02:06:11.386Z,19.20
2023-05-15T02:08:39.598Z,19.20
2023-05-15T02:11:07.523Z,19.20
2023-05-15T02:13:34.915Z,19.20
2023-05-15T02:16:01.920Z,19.20
2023-05-15T02:18:29.167Z,19.20
2023-05-15T02:20:56.050Z,19.20
2023-05-15T02:23:22.977Z,19.20
2023-05-15T02:26:16.767Z,19.20
2023-05-15T02:28:58.792Z,19.20
2023-05-15T02:31:34.897Z,19.20
2023-05-15T02:34:23.816Z,19.20
2023-05-15T02:36:53.187Z,19.20
2023-05-15T02:39:23.555Z,19.10
2023-05-15T02:41:52.409Z,19.10
2023-05-15T02:44:20.701Z,19.10
2023-05-15T02:46:48.687Z,19.10
2023-05-15T02:49:15.933Z,19.10
2023-05-15T02:51:43.031Z,19.00
2023-05-15T02:54:10.451Z,19.00
2023-05-15T02:56:39.893Z,19.00
2023-05-15T02:59:06.781Z,19.00
2023-05-15T03:01:33.598Z,19.00
2023-05-15T03:04:00.483Z,19.00
2023-05-15T03:06:27.490Z,19.00
2023-05-15T03:08:54.274Z,18.90
2023-05-15T03:11:21.482Z,18.90
2023-05-15T03:13:48.370Z,18.90
2023-05-15T03:16:15.319Z,18.90
2023-05-15T03:18:42.370Z,18.90
2023-05-15T03:21:09.226Z,18.90
2023-05-15T03:23:37.878Z,18.90
2023-05-15T03:26:05.044Z,18.80
2023-05-15T03:28:31.871Z,18.80
2023-05-15T03:30:58.644Z,18.80
2023-05-15T03:33:25.724Z,18.70
2023-05-15T03:35:52.889Z,18.70
2023-05-15T03:38:20.336Z,18.70
2023-05-15T03:40:48.420Z,18.70
2023-05-15T03:43:17.145Z,18.80
2023-05-15T03:45:44.316Z,18.80
2023-05-15T03:48:11.079Z,18.80
2023-05-15T03:50:39.735Z,18.80
2023-05-15T03:53:06.494Z,18.80
2023-05-15T03:55:33.455Z,18.80
2023-05-15T03:58:00.455Z,18.80
2023-05-15T04:00:27.493Z,18.80
2023-05-15T04:02:54.567Z,18.80
2023-05-15T04:05:22.066Z,18.80
2023-05-15T04:07:53.987Z,18.80
2023-05-15T04:10:20.967Z,18.80
2023-05-15T04:13:00.986Z,18.80
2023-05-15T04:15:28.824Z,18.80
2023-05-15T04:17:59.471Z,18.70
2023-05-15T04:20:29.706Z,18.70
2023-05-15T04:22:56.716Z,18.70
2023-05-15T04:25:34.751Z,18.70
2023-05-15T04:28:02.848Z,18.70
2023-05-15T04:30:29.894Z,18.60
2023-05-15T04:32:56.903Z,18.70
2023-05-15T04:35:35.812Z,18.70
2023-05-15T04:38:05.093Z,18.60
2023-05-15T04:40:36.686Z,18.70
2023-05-15T04:43:08.967Z,18.70
2023-05-15T04:45:45.433Z,18.60
2023-05-15T04:48:21.424Z,18.60
2023-05-15T04:50:48.426Z,18.70
2023-05-15T04:53:17.277Z,18.70
2023-05-15T04:55:44.176Z,18.70
2023-05-15T04:58:20.995Z,18.70
2023-05-15T05:00:47.920Z,18.70
2023-05-15T05:03:14.966Z,18.70
2023-05-15T05:05:44.092Z,18.70
2023-05-15T05:08:13.928Z,18.70
2023-05-15T05:10:43.206Z,18.70
2023-05-15T05:13:10.140Z,18.60
2023-05-15T05:15:38.872Z,18.70
2023-05-15T05:18:08.991Z,18.60
2023-05-15T05:20:36.776Z,18.60
2023-05-15T05:23:03.825Z,18.60
2023-05-15T05:25:33.351Z,18.60
2023-05-15T05:28:14.046Z,18.70
2023-05-15T05:30:49.803Z,18.70
2023-05-15T05:33:18.395Z,18.70
2023-05-15T05:35:55.816Z,18.70
2023-05-15T05:38:26.034Z,18.80
2023-05-15T05:40:58.210Z,18.80
2023-05-15T05:43:29.914Z,18.80
2023-05-15T05:45:58.341Z,18.80
2023-05-15T05:48:26.876Z,18.70
2023-05-15T05:50:59.130Z,18.70
2023-05-15T05:53:39.679Z,18.80
2023-05-15T05:56:18.695Z,18.80
2023-05-15T05:58:48.694Z,18.90
2023-05-15T06:01:15.782Z,18.90
2023-05-15T06:03:47.038Z,18.90
2023-05-15T06:06:16.779Z,18.90
2023-05-15T06:08:46.942Z,18.80
2023-05-15T06:11:13.957Z,18.80
2023-05-15T06:13:41.327Z,18.80
2023-05-15T06:16:08.616Z,18.80
2023-05-15T06:18:37.468Z,18.80
2023-05-15T06:21:09.925Z,18.80
2023-05-15T06:23:41.225Z,18.60
2023-05-15T06:26:21.041Z,18.70
2023-05-15T06:28:53.069Z,18.60
2023-05-15T06:31:22.107Z,18.60
2023-05-15T06:33:49.341Z,18.60
2023-05-15T06:36:17.111Z,18.60
2023-05-15T06:38:44.193Z,18.60
2023-05-15T06:41:11.401Z,18.60
2023-05-15T06:43:43.060Z,18.50
2023-05-15T06:46:10.138Z,18.50
2023-05-15T06:48:45.142Z,18.40
2023-05-15T06:51:15.505Z,18.40
2023-05-15T06:53:43.196Z,18.40
2023-05-15T06:56:10.335Z,18.30
2023-05-15T06:58:46.202Z,18.30
2023-05-15T07:01:28.853Z,18.30
2023-05-15T07:04:02.105Z,18.20
2023-05-15T07:06:32.727Z,18.20
2023-05-15T07:09:07.049Z,18.20
2023-05-15T07:11:40.804Z,18.10
2023-05-15T07:14:18.568Z,18.10
2023-05-15T07:16:52.539Z,18.00
2023-05-15T07:19:24.218Z,18.00
2023-05-15T07:21:53.739Z,17.90
2023-05-15T07:24:20.666Z,17.90
2023-05-15T07:29:25.708Z,17.90
2023-05-15T07:31:55.891Z,17.90
2023-05-15T07:34:25.749Z,17.90
2023-05-15T07:36:52.793Z,17.90
2023-05-15T07:39:22.123Z,18.00
2023-05-15T07:41:49.457Z,18.00
2023-05-15T07:44:16.751Z,18.00
2023-05-15T07:46:45.682Z,18.00
2023-05-15T07:49:12.961Z,18.00
2023-05-15T07:51:45.943Z,18.00
2023-05-15T07:54:15.959Z,17.90
2023-05-15T07:56:43.048Z,18.00
2023-05-15T07:59:10.181Z,18.00
2023-05-15T08:01:42.743Z,18.00
2023-05-15T08:04:10.266Z,18.00
2023-05-15T08:06:38.510Z,18.00
2023-05-15T08:09:05.524Z,18.00
2023-05-15T08:11:33.751Z,18.00
2023-05-15T08:14:00.744Z,18.00
2023-05-15T08:16:31.005Z,18.00
2023-05-15T08:19:01.719Z,18.00
2023-05-15T08:21:37.154Z,17.90
2023-05-15T08:24:04.434Z,17.90
2023-05-15T08:26:31.543Z,17.90
2023-05-15T08:29:00.593Z,17.90
2023-05-15T08:31:31.675Z,17.90
2023-05-15T08:33:59.725Z,17.90
2023-05-15T08:36:30.713Z,18.00
2023-05-15T08:38:58.757Z,18.00
2023-05-15T08:44:06.046Z,17.90
2023-05-15T08:46:36.183Z,17.90
2023-05-15T08:49:17.184Z,18.00
2023-05-15T08:51:44.171Z,17.90
2023-05-15T08:54:11.701Z,17.80
2023-05-15T08:56:38.949Z,17.90
2023-05-15T08:59:06.263Z,17.80
2023-05-15T09:01:34.086Z,17.80
2023-05-15T09:04:01.298Z,17.70
2023-05-15T09:06:28.704Z,17.70
2023-05-15T09:08:57.404Z,17.60
2023-05-15T09:11:24.711Z,17.60
2023-05-15T09:13:51.472Z,17.60
2023-05-15T09:16:18.301Z,17.50
2023-05-15T09:18:46.076Z,17.50
2023-05-15T09:21:26.892Z,17.50
2023-05-15T09:23:55.470Z,17.40
2023-05-15T09:26:22.353Z,17.40
2023-05-15T09:28:49.617Z,17.40
2023-05-15T09:31:19.657Z,17.30
2023-05-15T09:33:46.599Z,17.30
2023-05-15T09:36:21.989Z,17.40
2023-05-15T09:38:49.820Z,17.40
2023-05-15T09:41:25.941Z,17.40
2023-05-15T09:43:54.437Z,17.30
2023-05-15T09:46:21.503Z,17.30
2023-05-15T09:48:48.843Z,17.20
2023-05-15T09:51:17.897Z,17.20
2023-05-15T09:53:53.597Z,17.30
2023-05-15T09:56:20.823Z,17.30
2023-05-15T09:58:57.556Z,17.30
2023-05-15T10:01:25.461Z,17.30
2023-05-15T10:04:03.764Z,17.30
2023-05-15T10:06:40.655Z,17.40
2023-05-15T10:09:10.494Z,17.40
2023-05-15T10:11:47.029Z,17.40
2023-05-15T10:14:14.606Z,17.50
2023-05-15T10:16:41.979Z,17.50
2023-05-15T10:19:10.920Z,17.50
2023-05-15T10:21:42.064Z,17.50
2023-05-15T10:24:10.734Z,17.60
2023-05-15T10:26:42.120Z,17.60
2023-05-15T10:29:19.161Z,17.50
2023-05-15T10:31:49.101Z,17.40
2023-05-15T10:34:16.466Z,17.30
2023-05-15T10:36:43.773Z,17.40
2023-05-15T10:39:10.804Z,17.40
2023-05-15T10:41:39.382Z,17.50
2023-05-15T10:44:06.557Z,17.60
2023-05-15T10:46:35.824Z,17.50
2023-05-15T10:49:02.924Z,17.50
2023-05-15T10:51:31.762Z,17.40
2023-05-15T10:54:01.005Z,17.40
2023-05-15T10:56:31.131Z,17.40
2023-05-15T10:58:58.158Z,17.40
2023-05-15T11:01:32.797Z,17.40
2023-05-15T11:04:11.874Z,17.40
2023-05-15T11:06:44.067Z,17.30
2023-05-15T11:09:25.854Z,17.30
2023-05-15T11:11:57.078Z,17.30
2023-05-15T11:14:25.455Z,17.30
2023-05-15T11:16:55.555Z,17.40
2023-05-15T11:19:37.620Z,17.30
2023-05-15T11:22:27.332Z,17.30
2023-05-15T11:24:55.741Z,17.30
2023-05-15T11:27:33.724Z,17.30
2023-05-15T11:30:25.075Z,17.30
2023-05-15T11:32:58.888Z,17.20
2023-05-15T11:35:34.718Z,17.10
2023-05-15T11:38:10.792Z,17.20
2023-05-15T11:40:48.074Z,17.20
2023-05-15T11:43:28.681Z,17.30
2023-05-15T11:45:58.117Z,17.20
2023-05-15T11:48:30.416Z,17.20
2023-05-15T11:50:57.396Z,17.10
2023-05-15T11:53:24.869Z,17.10
2023-05-15T11:55:54.359Z,17.10
2023-05-15T11:58:22.682Z,17.10
2023-05-15T12:00:51.599Z,17.20
2023-05-15T12:03:27.325Z,17.20
2023-05-15T12:05:59.429Z,17.20
2023-05-15T12:08:37.727Z,17.30
2023-05-15T12:11:05.622Z,17.20
2023-05-15T12:13:33.396Z,17.20
2023-05-15T12:16:02.248Z,17.30
2023-05-15T12:18:33.675Z,17.30
2023-05-15T12:21:01.098Z,17.30
2023-05-15T12:23:28.683Z,17.30
2023-05-15T12:25:59.511Z,17.30
2023-05-15T12:28:27.156Z,17.30
2023-05-15T12:30:55.942Z,17.30
2023-05-15T12:33:23.495Z,17.30
2023-05-15T12:35:54.267Z,17.20
2023-05-15T12:38:22.749Z,17.20
2023-05-15T12:40:54.026Z,17.20
2023-05-15T12:43:24.039Z,17.20
2023-05-15T12:45:53.048Z,17.20
2023-05-15T12:48:20.553Z,17.30
2023-05-15T12:50:47.598Z,17.30
2023-05-15T12:53:18.197Z,17.30
2023-05-15T12:55:46.900Z,17.20
2023-05-15T12:58:18.671Z,17.30
2023-05-15T13:00:46.740Z,17.30
2023-05-15T13:03:14.274Z,17.30
2023-05-15T13:05:45.581Z,17.30
2023-05-15T13:08:19.301Z,17.30
2023-05-15T13:10:47.571Z,17.40
2023-05-15T13:13:15.230Z,17.40
2023-05-15T13:15:45.756Z,17.40
2023-05-15T13:18:15.044Z,17.50
2023-05-15T13:20:45.830Z,17.50
2023-05-15T13:23:17.792Z,17.40
2023-05-15T13:25:44.702Z,17.40
2023-05-15T13:28:12.084Z,17.40
2023-05-15T13:30:41.793Z,17.40
2023-05-15T13:33:10.739Z,17.40
2023-05-15T13:35:39.101Z,17.40
2023-05-15T13:38:06.257Z,17.50
2023-05-15T13:40:36.846Z,17.50
2023-05-15T13:43:03.725Z,17.50
2023-05-15T13:45:30.590Z,17.50
2023-05-15T13:47:57.417Z,17.50
2023-05-15T13:50:24.467Z,17.60
2023-05-15T13:52:51.516Z,17.70
2023-05-15T13:55:19.750Z,17.70
2023-05-15T13:57:48.255Z,17.70
2023-05-15T14:00:15.490Z,17.80
2023-05-15T14:02:43.675Z,17.80
2023-05-15T14:05:12.309Z,17.80
2023-05-15T14:07:39.661Z,17.80
2023-05-15T14:10:07.234Z,17.80
2023-05-15T14:12:34.088Z,17.80
2023-05-15T14:15:01.359Z,17.90
2023-05-15T14:17:28.483Z,17.90
2023-05-15T14:19:55.560Z,17.90
2023-05-15T14:22:25.089Z,17.90
2023-05-15T14:24:54.822Z,17.90
2023-05-15T14:27:21.614Z,17.90
2023-05-15T14:29:49.483Z,17.90
2023-05-15T14:32:16.912Z,17.80
2023-05-15T14:34:44.093Z,17.80
2023-05-15T14:37:10.963Z,17.90
2023-05-15T14:39:37.798Z,17.90
2023-05-15T14:42:04.883Z,17.90
2023-05-15T14:44:31.794Z,17.90
2023-05-15T14:47:11.949Z,17.90
2023-05-15T14:49:39.504Z,17.90
2023-05-15T14:52:08.574Z,17.90
2023-05-15T14:54:36.068Z,17.90
2023-05-15T14:57:03.843Z,17.90
2023-05-15T14:59:30.732Z,17.90
2023-05-15T15:01:57.681Z,17.90
2023-05-15T15:04:26.609Z,17.90
2023-05-15T15:06:56.884Z,17.90
2023-05-15T15:09:25.234Z,18.00
2023-05-15T15:11:52.632Z,18.00
2023-05-15T15:14:19.517Z,18.00
2023-05-15T15:16:46.701Z,18.00
2023-05-15T15:19:15.194Z,18.00
2023-05-15T15:21:43.685Z,18.00
2023-05-15T15:24:10.614Z,18.00
2023-05-15T15:26:37.688Z,18.00
2023-05-15T15:29:04.536Z,18.10
2023-05-15T15:31:32.277Z,18.10
2023-05-15T15:33:59.466Z,18.20
2023-05-15T15:36:26.334Z,18.30
2023-05-15T15:38:53.621Z,18.30
2023-05-15T15:41:23.654Z,18.40
2023-05-15T15:43:50.728Z,18.40
2023-05-15T15:46:17.537Z,18.40
2023-05-15T15:48:44.558Z,18.40
2023-05-15T15:51:11.479Z,18.50
2023-05-15T15:53:38.893Z,18.50
2023-05-15T15:56:06.994Z,18.50
2023-05-15T15:58:33.809Z,18.60
2023-05-15T16:01:00.940Z,18.60
2023-05-15T16:03:27.925Z,18.60
2023-05-15T16:05:54.752Z,18.60
2023-05-15T16:08:21.641Z,18.60
2023-05-15T16:10:48.500Z,18.60
2023-05-15T16:13:15.271Z,18.70
2023-05-15T16:15:42.047Z,18.70
2023-05-15T16:18:08.862Z,18.70
2023-05-15T16:20:35.742Z,18.70
2023-05-15T16:23:02.599Z,18.70
2023-05-15T16:25:29.430Z,18.70
2023-05-15T16:27:56.223Z,18.70
2023-05-15T16:30:28.269Z,18.60
2023-05-15T16:33:01.224Z,18.60
2023-05-15T16:35:28.096Z,18.60
2023-05-15T16:37:54.927Z,18.60
2023-05-15T16:40:21.666Z,18.60
2023-05-15T16:42:48.410Z,18.60
2023-05-15T16:45:15.681Z,18.60
2023-05-15T16:47:42.510Z,18.60
2023-05-15T16:50:09.924Z,18.60
2023-05-15T16:52:38.833Z,18.70
2023-05-15T16:55:06.272Z,18.70
2023-05-15T16:57:33.027Z,18.70
2023-05-15T16:59:59.785Z,18.70
2023-05-15T17:02:26.838Z,18.60
2023-05-15T17:04:53.649Z,18.60
2023-05-15T17:07:20.641Z,18.60
2023-05-15T17:09:47.570Z,18.60
2023-05-15T17:12:14.318Z,18.60
2023-05-15T17:14:41.135Z,18.60
2023-05-15T17:17:07.978Z,18.60
2023-05-15T17:19:34.835Z,18.60
2023-05-15T17:22:01.702Z,18.50
2023-05-15T17:24:38.801Z,18.50
2023-05-15T17:27:16.055Z,18.50
2023-05-15T17:29:43.211Z,18.40
2023-05-15T17:32:11.589Z,18.40
2023-05-15T17:34:38.734Z,18.40
2023-05-15T17:37:05.948Z,18.30
2023-05-15T17:39:32.961Z,18.30
2023-05-15T17:41:59.745Z,18.30
2023-05-15T17:44:29.755Z,18.20
2023-05-15T17:46:57.361Z,18.20
2023-05-15T17:49:24.258Z,18.20
2023-05-15T17:51:51.051Z,18.20
2023-05-15T17:54:18.016Z,18.20
2023-05-15T17:56:44.959Z,18.20
2023-05-15T17:59:11.962Z,18.20
2023-05-15T18:01:38.802Z,18.10
2023-05-15T18:04:05.819Z,18.10
2023-05-15T18:06:34.296Z,18.10
2023-05-15T18:09:01.197Z,18.10
2023-05-15T18:11:28.167Z,18.10
2023-05-15T18:13:55.077Z,18.10
2023-05-15T18:16:22.158Z,18.10
2023-05-15T18:18:49.477Z,18.10
2023-05-15T18:21:16.466Z,18.10
2023-05-15T18:23:43.264Z,18.10
2023-05-15T18:26:10.728Z,18.10
2023-05-15T18:28:37.496Z,18.10
2023-05-15T18:31:04.302Z,18.10
2023-05-15T18:33:31.397Z,18.10
2023-05-15T18:35:58.207Z,18.20
2023-05-15T18:38:24.988Z,18.20
2023-05-15T18:40:51.881Z,18.20
2023-05-15T18:43:18.698Z,18.20
2023-05-15T18:45:46.323Z,18.10
2023-05-15T18:48:13.071Z,18.10
2023-05-15T18:50:39.863Z,18.10
2023-05-15T18:53:07.109Z,18.10
2023-05-15T18:55:33.923Z,18.10
2023-05-15T18:58:00.798Z,18.10
2023-05-15T19:00:38.160Z,18.10
2023-05-15T19:03:06.148Z,18.10
2023-05-15T19:05:34.311Z,18.00
2023-05-15T19:08:01.927Z,18.00
2023-05-15T19:10:29.759Z,18.00
2023-05-15T19:12:57.738Z,18.00
2023-05-15T19:15:25.502Z,18.00
2023-05-15T19:17:52.616Z,18.00
2023-05-15T19:20:20.303Z,17.90
2023-05-15T19:22:47.197Z,17.90
2023-05-15T19:25:13.998Z,17.90
2023-05-15T19:27:41.335Z,17.90
2023-05-15T19:30:09.987Z,17.90
2023-05-15T19:32:37.323Z,17.80
2023-05-15T19:35:04.744Z,17.80
2023-05-15T19:37:31.486Z,17.80
2023-05-15T19:40:01.409Z,17.80
2023-05-15T19:42:28.164Z,17.80
2023-05-15T19:44:55.005Z,17.70
2023-05-15T19:47:25.346Z,17.70
2023-05-15T19:49:52.850Z,17.70
2023-05-15T19:52:19.905Z,17.70
2023-05-15T19:54:46.813Z,17.70
2023-05-15T19:57:13.728Z,17.70
2023-05-15T19:59:40.624Z,17.70
2023-05-15T20:02:10.564Z,17.70
2023-05-15T20:04:37.944Z,17.70
2023-05-15T20:07:05.178Z,17.70
2023-05-15T20:09:31.972Z,17.70
2023-05-15T20:11:58.892Z,17.60
2023-05-15T20:14:25.808Z,17.60
2023-05-15T20:16:52.768Z,17.60
2023-05-15T20:19:22.340Z,17.60
2023-05-15T20:21:49.746Z,17.60
2023-05-15T20:24:19.709Z,17.50
2023-05-15T20:26:46.533Z,17.50
2023-05-15T20:29:13.369Z,17.50
2023-05-15T20:31:40.702Z,17.50
2023-05-15T20:34:10.702Z,17.50
2023-05-15T20:36:38.997Z,17.50
2023-05-15T20:39:07.293Z,17.50
2023-05-15T20:41:34.578Z,17.50
2023-05-15T20:44:03.504Z,17.40
2023-05-15T20:46:30.737Z,17.40
2023-05-15T20:48:57.935Z,17.50
2023-05-15T20:51:24.968Z,17.40
2023-05-15T20:53:51.761Z,17.50
2023-05-15T20:56:18.767Z,17.40
2023-05-15T20:58:45.507Z,17.40
2023-05-15T21:01:13.613Z,17.40
2023-05-15T21:03:40.707Z,17.30
2023-05-15T21:06:10.416Z,17.30
2023-05-15T21:08:37.211Z,17.30
2023-05-15T21:11:03.944Z,17.30
2023-05-15T21:13:30.764Z,17.30
2023-05-15T21:15:59.581Z,17.30
2023-05-15T21:18:31.541Z,17.30
2023-05-15T21:20:58.955Z,17.30
2023-05-15T21:23:25.924Z,17.30
2023-05-15T21:25:53.503Z,17.30
2023-05-15T21:28:22.610Z,17.30
2023-05-15T21:30:49.532Z,17.30
2023-05-15T21:33:16.285Z,17.30
2023-05-15T21:35:43.097Z,17.30
2023-05-15T21:38:09.934Z,17.30
2023-05-15T21:40:36.940Z,17.30
2023-05-15T21:43:03.740Z,17.30
2023-05-15T21:45:30.808Z,17.30
2023-05-15T21:47:57.759Z,17.30
2023-05-15T21:50:26.009Z,17.30
2023-05-15T21:52:53.079Z,17.30
2023-05-15T21:55:19.832Z,17.30
2023-05-15T21:57:46.622Z,17.20
2023-05-15T22:00:14.134Z,17.20
2023-05-15T22:02:41.283Z,17.20
2023-05-15T22:05:08.538Z,17.20
2023-05-15T22:07:35.489Z,17.20
2023-05-15T22:10:03.138Z,17.10
2023-05-15T22:12:30.134Z,17.10
2023-05-15T22:14:58.775Z,17.10
2023-05-15T22:17:29.186Z,17.00
2023-05-15T22:20:06.417Z,17.10
2023-05-15T22:22:35.169Z,17.00
2023-05-15T22:25:02.131Z,17.00
2023-05-15T22:27:28.907Z,17.00
2023-05-15T22:29:55.831Z,17.00
2023-05-15T22:32:22.974Z,16.90
2023-05-15T22:34:49.777Z,17.00
2023-05-15T22:37:16.566Z,16.90
2023-05-15T22:39:43.815Z,16.90
2023-05-15T22:42:10.613Z,16.90
2023-05-15T22:44:37.413Z,16.80
2023-05-15T22:47:04.310Z,16.80
2023-05-15T22:49:31.115Z,16.80
2023-05-15T22:51:58.191Z,16.70
2023-05-15T22:54:25.079Z,16.80
2023-05-15T22:56:53.102Z,16.80
2023-05-15T22:59:20.291Z,16.70
2023-05-15T23:01:47.580Z,16.70
2023-05-15T23:04:14.836Z,16.70
2023-05-15T23:06:41.730Z,16.70
2023-05-15T23:09:08.908Z,16.70
2023-05-15T23:11:37.713Z,16.70
2023-05-15T23:14:04.659Z,16.70
2023-05-15T23:16:31.773Z,16.70
2023-05-15T23:18:58.544Z,16.70
2023-05-15T23:21:25.764Z,16.70
2023-05-15T23:23:52.589Z,16.70
2023-05-15T23:26:19.372Z,16.60
2023-05-15T23:28:46.159Z,16.60
2023-05-15T23:31:14.092Z,16.60
2023-05-15T23:33:41.143Z,16.60
2023-05-15T23:36:07.970Z,16.60
2023-05-15T23:38:34.776Z,16.50
2023-05-15T23:41:01.537Z,16.50
2023-05-15T23:43:29.032Z,16.50
2023-05-15T23:45:55.961Z,16.50
2023-05-15T23:48:22.731Z,16.40
2023-05-15T23:50:49.748Z,16.40
2023-05-15T23:53:16.525Z,16.40
2023-05-15T23:55:43.320Z,16.40
2023-05-15T23:58:10.150Z,16.40
